Time;durP1;ratioP1;P1;durP2;ratioP2;P2;SDS_P1;SDS_P2;PMS_P1;PMS_P2;Temp;Humidity;BMP_temperature;BMP_pressure;BME280_temperature;BME280_humidity;BME280_pressure;Samples;Min_cycle;Max_cycle;Signal;HPM_P1;HPM_P2
2023/07/09 00:01:53;;;;;;;36.53;16.63;;;30.50;49.30;;;;;;5015067;28;20220;-68
2023/07/09 00:04:20;;;;;;;39.63;16.90;;;30.50;49.30;;;;;;5014959;28;20200;-68
2023/07/09 00:06:47;;;;;;;34.97;15.97;;;30.40;49.20;;;;;;5027466;28;20200;-67
2023/07/09 00:09:16;;;;;;;42.97;16.37;;;30.50;49.30;;;;;;5013702;28;20212;-67
2023/07/09 00:11:44;;;;;;;49.23;16.97;;;30.40;49.20;;;;;;5023320;28;20663;-67
2023/07/09 00:14:12;;;;;;;34.53;14.83;;;30.40;49.90;;;;;;5026270;28;20278;-67
2023/07/09 00:16:40;;;;;;;34.33;14.40;;;30.40;49.30;;;;;;5034790;28;20204;-67
2023/07/09 00:19:16;;;;;;;32.53;14.97;;;30.40;49.30;;;;;;5021846;28;20225;-67
2023/07/09 00:21:45;;;;;;;46.77;15.63;;;30.40;49.30;;;;;;5016796;28;20254;-67
2023/07/09 00:24:12;;;;;;;34.87;14.37;;;30.40;49.30;;;;;;5034444;28;20269;-67
2023/07/09 00:26:40;;;;;;;30.77;13.87;;;30.30;49.30;;;;;;5042272;28;20254;-67
2023/07/09 00:29:10;;;;;;;34.47;14.13;;;30.30;49.30;;;;;;5034775;28;20242;-67
2023/07/09 00:31:38;;;;;;;32.63;13.43;;;30.30;49.30;;;;;;5020635;28;20204;-67
2023/07/09 00:34:05;;;;;;;48.43;14.80;;;30.30;49.30;;;;;;5036306;28;20226;-67
2023/07/09 00:36:34;;;;;;;31.80;13.23;;;30.30;49.40;;;;;;5024117;28;20214;-67
2023/07/09 00:39:04;;;;;;;34.33;12.40;;;30.30;49.40;;;;;;5010691;28;20237;-67
2023/07/09 00:41:34;;;;;;;30.37;11.23;;;30.30;49.40;;;;;;5020862;28;20206;-67
2023/07/09 00:44:22;;;;;;;31.87;11.90;;;30.30;49.40;;;;;;5043697;28;20200;-67
2023/07/09 00:47:23;;;;;;;34.73;12.03;;;30.30;49.40;;;;;;5036092;28;20224;-71
2023/07/09 00:49:53;;;;;;;38.73;10.80;;;30.20;49.30;;;;;;5007375;28;20205;-73
2023/07/09 00:52:32;;;;;;;36.43;10.83;;;30.20;49.30;;;;;;5030542;28;20197;-67
2023/07/09 00:55:03;;;;;;;33.40;11.43;;;30.20;49.30;;;;;;5044575;28;20200;-68
2023/07/09 00:57:30;;;;;;;29.10;9.93;;;30.20;49.30;;;;;;5041243;28;20188;-67
2023/07/09 01:00:06;;;;;;;46.47;11.00;;;30.20;49.30;;;;;;5024335;28;20680;-66
2023/07/09 01:02:34;;;;;;;26.90;9.30;;;30.20;49.30;;;;;;5037613;28;20204;-67
2023/07/09 01:05:03;;;;;;;40.33;10.50;;;30.10;49.30;;;;;;5027157;28;20203;-67
2023/07/09 01:07:31;;;;;;;43.40;11.03;;;30.10;49.30;;;;;;5014489;28;20212;-68
2023/07/09 01:09:58;;;;;;;44.93;10.60;;;30.10;49.30;;;;;;5009771;28;20205;-67
2023/07/09 01:12:26;;;;;;;39.00;10.13;;;30.10;49.30;;;;;;5021780;28;20717;-67
2023/07/09 01:14:58;;;;;;;29.27;9.20;;;30.10;49.30;;;;;;5029312;28;20291;-68
2023/07/09 01:17:27;;;;;;;33.47;9.40;;;30.10;49.40;;;;;;5019332;28;20201;-71
2023/07/09 01:19:55;;;;;;;33.63;9.27;;;30.10;49.40;;;;;;5038458;28;20299;-67
2023/07/09 01:22:24;;;;;;;40.87;10.27;;;30.10;49.40;;;;;;5021364;28;20202;-67
2023/07/09 01:25:01;;;;;;;29.33;9.37;;;30.10;49.50;;;;;;5032804;28;20225;-67
2023/07/09 01:27:33;;;;;;;28.47;9.13;;;30.10;49.50;;;;;;5028460;28;20308;-67
2023/07/09 01:30:01;;;;;;;48.60;10.83;;;30.10;49.50;;;;;;5025065;28;20220;-71
2023/07/09 01:32:29;;;;;;;32.03;9.63;;;30.10;49.50;;;;;;5033371;28;20675;-67
2023/07/09 01:35:04;;;;;;;23.97;8.07;;;30.00;49.50;;;;;;5030567;28;20197;-67
2023/07/09 01:37:35;;;;;;;29.83;8.90;;;30.00;49.50;;;;;;5026870;28;20288;-67
2023/07/09 01:40:04;;;;;;;24.20;7.97;;;30.10;49.60;;;;;;5030264;28;20301;-68
2023/07/09 01:42:32;;;;;;;23.87;8.47;;;30.00;49.60;;;;;;5032159;28;20208;-67
2023/07/09 01:45:01;;;;;;;30.57;8.77;;;30.00;49.60;;;;;;5016708;28;20200;-72
2023/07/09 01:47:28;;;;;;;31.93;8.97;;;30.00;49.60;;;;;;5021948;28;20204;-69
2023/07/09 01:49:56;;;;;;;49.43;10.40;;;30.00;49.60;;;;;;5014848;28;20568;-67
2023/07/09 01:52:27;;;;;;;28.20;9.00;;;30.00;49.60;;;;;;5027251;28;20192;-67
2023/07/09 01:54:55;;;;;;;60.33;12.23;;;30.00;49.60;;;;;;5037752;28;20204;-70
2023/07/09 01:57:24;;;;;;;33.10;9.20;;;30.00;49.70;;;;;;5042006;28;20196;-68
2023/07/09 01:59:52;;;;;;;32.73;9.60;;;30.00;49.70;;;;;;5035905;28;20231;-67
2023/07/09 02:02:20;;;;;;;28.30;8.60;;;30.00;49.70;;;;;;5041215;28;20211;-68
2023/07/09 02:04:48;;;;;;;62.50;12.67;;;30.00;49.80;;;;;;5029010;28;20662;-67
2023/07/09 02:07:16;;;;;;;25.27;8.60;;;29.90;49.70;;;;;;5041703;28;20204;-67
2023/07/09 02:09:43;;;;;;;32.60;9.67;;;29.90;49.70;;;;;;5015744;28;20574;-67
2023/07/09 02:12:13;;;;;;;55.00;11.57;;;29.90;49.70;;;;;;5011971;28;20232;-67
2023/07/09 02:14:41;;;;;;;49.07;11.30;;;29.90;49.80;;;;;;5032114;28;20201;-67
2023/07/09 02:17:08;;;;;;;33.00;9.33;;;29.90;49.80;;;;;;5014534;28;20202;-71
2023/07/09 02:19:36;;;;;;;37.00;9.77;;;29.90;49.80;;;;;;5018658;28;20256;-67
2023/07/09 02:22:03;;;;;;;45.03;10.47;;;29.90;49.80;;;;;;5017957;28;20197;-68
2023/07/09 02:24:30;;;;;;;25.03;9.97;;;29.90;50.40;;;;;;5023948;28;20420;-68
2023/07/09 02:26:57;;;;;;;25.67;9.83;;;29.90;49.90;;;;;;5025670;28;20205;-66
2023/07/09 02:29:27;;;;;;;36.67;10.90;;;29.90;49.90;;;;;;5030430;28;20204;-67
2023/07/09 02:31:58;;;;;;;66.57;14.03;;;29.90;49.90;;;;;;5019467;28;20207;-72
2023/07/09 02:34:26;;;;;;;30.17;9.97;;;29.80;49.80;;;;;;5013196;28;20211;-66
2023/07/09 02:36:53;;;;;;;32.13;11.33;;;29.90;49.90;;;;;;5024013;28;20208;-66
2023/07/09 02:39:20;;;;;;;33.03;11.00;;;29.90;49.90;;;;;;5041244;28;20231;-66
2023/07/09 02:41:48;;;;;;;29.83;10.87;;;29.90;49.90;;;;;;5045309;28;20215;-67
2023/07/09 02:44:15;;;;;;;35.97;11.63;;;29.90;50.00;;;;;;5015208;28;20205;-66
2023/07/09 02:46:44;;;;;;;39.70;11.50;;;29.80;49.90;;;;;;5045165;28;20207;-67
2023/07/09 02:49:13;;;;;;;38.27;11.33;;;29.80;50.00;;;;;;5045643;28;20208;-68
2023/07/09 02:51:40;;;;;;;36.10;11.07;;;29.80;50.00;;;;;;5049778;28;20204;-67
2023/07/09 02:54:08;;;;;;;35.40;10.80;;;29.80;50.00;;;;;;5041456;28;20211;-67
2023/07/09 02:56:35;;;;;;;52.07;12.60;;;29.90;50.00;;;;;;5036931;28;20208;-66
2023/07/09 02:59:02;;;;;;;37.53;10.77;;;29.80;50.00;;;;;;5033794;28;20229;-66
2023/07/09 03:01:29;;;;;;;50.73;12.67;;;29.80;50.00;;;;;;5035417;28;20219;-66
2023/07/09 03:03:59;;;;;;;63.07;13.63;;;29.80;50.00;;;;;;5033724;28;20198;-66
2023/07/09 03:06:27;;;;;;;26.63;10.10;;;29.80;50.10;;;;;;5048448;28;20204;-67
2023/07/09 03:08:54;;;;;;;36.20;10.97;;;29.80;50.10;;;;;;5039874;28;20212;-66
2023/07/09 03:11:22;;;;;;;32.93;11.53;;;29.80;50.10;;;;;;5017196;28;20216;-68
2023/07/09 03:13:49;;;;;;;36.57;11.10;;;29.80;50.10;;;;;;5022275;28;20220;-72
2023/07/09 03:16:18;;;;;;;50.13;12.10;;;29.80;50.10;;;;;;5026527;28;20209;-67
2023/07/09 03:18:45;;;;;;;34.70;11.13;;;29.80;50.10;;;;;;5038922;28;20312;-67
2023/07/09 03:21:14;;;;;;;64.67;14.13;;;29.80;50.10;;;;;;5028852;28;20224;-68
2023/07/09 03:23:41;;;;;;;33.47;12.27;;;29.80;50.10;;;;;;5020552;28;20206;-67
2023/07/09 03:26:08;;;;;;;31.53;11.27;;;29.80;50.20;;;;;;5010031;28;20220;-67
2023/07/09 03:28:35;;;;;;;28.63;10.50;;;29.80;50.20;;;;;;5013330;28;20201;-67
2023/07/09 03:31:02;;;;;;;33.93;10.53;;;29.80;50.20;;;;;;5023743;28;20291;-67
2023/07/09 03:33:29;;;;;;;40.13;11.07;;;29.70;50.20;;;;;;5026832;28;20207;-66
2023/07/09 03:35:56;;;;;;;34.10;10.80;;;29.80;50.20;;;;;;5022841;28;20311;-67
2023/07/09 03:38:24;;;;;;;26.40;9.67;;;29.80;50.20;;;;;;5020275;28;20760;-68
2023/07/09 03:40:52;;;;;;;35.13;10.83;;;29.70;50.20;;;;;;5025903;28;20197;-66
2023/07/09 03:43:19;;;;;;;35.67;11.37;;;29.70;50.20;;;;;;5026289;28;20326;-66
2023/07/09 03:45:47;;;;;;;37.17;10.57;;;29.70;50.20;;;;;;5015564;28;20204;-73
2023/07/09 03:48:15;;;;;;;32.20;10.43;;;29.70;50.30;;;;;;5029602;28;20197;-67
2023/07/09 03:50:43;;;;;;;30.70;9.93;;;29.70;50.30;;;;;;5029331;28;20208;-68
2023/07/09 03:53:09;;;;;;;34.13;10.53;;;29.70;50.30;;;;;;5024462;28;20545;-73
2023/07/09 03:55:38;;;;;;;37.00;10.77;;;29.70;50.30;;;;;;5027408;28;20566;-73
2023/07/09 03:58:05;;;;;;;27.90;9.40;;;29.70;50.30;;;;;;5009435;28;20206;-66
2023/07/09 04:00:32;;;;;;;42.17;11.60;;;29.70;50.30;;;;;;5008433;28;20229;-70
2023/07/09 04:02:59;;;;;;;34.10;10.00;;;29.70;50.30;;;;;;5012200;28;20209;-66
2023/07/09 04:05:27;;;;;;;34.43;9.73;;;29.70;50.40;;;;;;5009639;28;20202;-67
2023/07/09 04:07:54;;;;;;;27.50;9.83;;;29.70;51.00;;;;;;5009126;28;20328;-66
2023/07/09 04:10:22;;;;;;;42.10;10.47;;;29.60;50.30;;;;;;5013349;28;20919;-66
2023/07/09 04:12:51;;;;;;;23.73;9.60;;;29.60;50.30;;;;;;5009262;28;20226;-66
2023/07/09 04:15:18;;;;;;;30.13;9.37;;;29.60;50.50;;;;;;5020215;28;20607;-68
2023/07/09 04:17:45;;;;;;;35.07;10.23;;;29.60;51.10;;;;;;5015664;28;20670;-68
2023/07/09 04:20:12;;;;;;;31.07;10.17;;;29.60;50.50;;;;;;5019032;28;20221;-66
2023/07/09 04:22:39;;;;;;;30.90;9.40;;;29.60;50.50;;;;;;5028281;28;20667;-68
2023/07/09 04:25:10;;;;;;;27.47;9.67;;;29.60;50.50;;;;;;5028056;28;20201;-73
2023/07/09 04:27:37;;;;;;;28.03;9.50;;;29.60;50.50;;;;;;5030243;28;20197;-68
2023/07/09 04:30:09;;;;;;;30.43;9.27;;;29.60;50.50;;;;;;5016938;28;20219;-69
2023/07/09 04:32:36;;;;;;;39.30;10.50;;;29.60;50.50;;;;;;5027142;28;20205;-67
2023/07/09 04:35:05;;;;;;;36.67;10.43;;;29.60;50.50;;;;;;5017752;28;20204;-66
2023/07/09 04:37:32;;;;;;;38.03;9.67;;;29.60;50.50;;;;;;5042106;28;20307;-67
2023/07/09 04:39:59;;;;;;;27.10;8.73;;;29.60;50.50;;;;;;5041710;28;20231;-66
2023/07/09 04:42:26;;;;;;;49.90;10.47;;;29.60;50.50;;;;;;5041590;28;20214;-66
2023/07/09 04:44:53;;;;;;;52.47;10.67;;;29.50;50.50;;;;;;5042393;28;20204;-67
2023/07/09 04:47:21;;;;;;;34.93;9.37;;;29.50;50.50;;;;;;5044304;28;21112;-65
2023/07/09 04:49:48;;;;;;;41.77;9.73;;;29.40;51.10;;;;;;5044633;28;20695;-66
2023/07/09 04:52:16;;;;;;;31.63;8.37;;;29.40;50.90;;;;;;5046938;28;20208;-66
2023/07/09 04:54:44;;;;;;;30.80;7.90;;;29.40;50.80;;;;;;5041132;28;20203;-66
2023/07/09 04:57:11;;;;;;;23.80;7.13;;;29.40;50.70;;;;;;5028316;28;20254;-66
2023/07/09 04:59:38;;;;;;;35.13;8.63;;;29.50;50.70;;;;;;5038123;28;20885;-65
2023/07/09 05:02:06;;;;;;;33.87;7.87;;;29.50;50.70;;;;;;5016297;28;20204;-65
2023/07/09 05:04:34;;;;;;;33.03;7.83;;;29.50;50.70;;;;;;5008187;28;20215;-65
2023/07/09 05:07:01;;;;;;;26.10;7.07;;;29.50;50.70;;;;;;5021400;28;20201;-66
2023/07/09 05:09:28;;;;;;;27.47;7.10;;;29.50;50.70;;;;;;5007929;28;20205;-65
2023/07/09 05:11:55;;;;;;;38.13;8.70;;;29.50;50.70;;;;;;5007093;28;20221;-66
2023/07/09 05:14:22;;;;;;;44.03;8.70;;;29.50;50.70;;;;;;5012044;28;20208;-67
2023/07/09 05:16:48;;;;;;;23.70;6.60;;;29.50;50.70;;;;;;5023112;28;20203;-66
2023/07/09 05:19:15;;;;;;;32.73;7.47;;;29.50;50.70;;;;;;5012682;28;20213;-66
2023/07/09 05:21:44;;;;;;;38.77;8.40;;;29.50;51.30;;;;;;5012709;28;20741;-65
2023/07/09 05:24:11;;;;;;;30.80;7.37;;;29.50;50.70;;;;;;5013778;28;20201;-65
2023/07/09 05:26:38;;;;;;;44.40;8.37;;;29.50;50.70;;;;;;5020570;28;20201;-66
2023/07/09 05:29:05;;;;;;;49.67;9.00;;;29.50;50.80;;;;;;5022547;28;20208;-65
2023/07/09 05:31:32;;;;;;;59.17;10.07;;;29.40;50.70;;;;;;5017598;28;20236;-65
2023/07/09 05:34:00;;;;;;;54.90;9.27;;;29.40;50.80;;;;;;5013740;28;20200;-65
2023/07/09 05:36:28;;;;;;;43.73;8.67;;;29.40;50.70;;;;;;5034363;28;20219;-67
2023/07/09 05:38:56;;;;;;;39.57;8.03;;;29.40;50.80;;;;;;5019545;28;20261;-66
2023/07/09 05:41:23;;;;;;;37.70;8.57;;;29.40;51.40;;;;;;5041562;28;20740;-66
2023/07/09 05:43:51;;;;;;;37.30;7.43;;;29.50;50.90;;;;;;5032629;28;20201;-66
2023/07/09 05:46:18;;;;;;;40.43;7.80;;;29.40;50.90;;;;;;5035052;28;20660;-73
2023/07/09 05:48:45;;;;;;;30.00;7.27;;;29.50;50.90;;;;;;5038603;28;20204;-72
2023/07/09 05:51:12;;;;;;;65.93;10.50;;;29.40;50.90;;;;;;5024056;28;20208;-71
2023/07/09 05:53:39;;;;;;;45.60;8.73;;;29.50;51.00;;;;;;5043627;28;20200;-71
2023/07/09 05:56:07;;;;;;;30.67;7.00;;;29.40;50.90;;;;;;5044080;28;20196;-73
2023/07/09 05:58:34;;;;;;;34.63;7.80;;;29.50;51.10;;;;;;5016160;28;20205;-70
2023/07/09 06:01:01;;;;;;;27.67;7.17;;;29.50;51.70;;;;;;5017836;28;20220;-66
2023/07/09 06:03:29;;;;;;;29.97;6.57;;;29.50;51.10;;;;;;5028413;28;20208;-66
2023/07/09 06:05:58;;;;;;;31.13;7.17;;;29.40;51.00;;;;;;5028034;28;20196;-67
2023/07/09 06:08:26;;;;;;;34.37;7.53;;;29.50;51.10;;;;;;5045911;28;20243;-66
2023/07/09 06:10:59;;;;;;;36.73;7.40;;;29.50;51.10;;;;;;5024196;28;20209;-67
2023/07/09 06:13:30;;;;;;;37.60;7.93;;;29.50;51.20;;;;;;5045171;28;20235;-65
2023/07/09 06:15:58;;;;;;;23.50;6.50;;;29.50;51.20;;;;;;5033120;28;20196;-73
2023/07/09 06:18:29;;;;;;;28.20;6.53;;;29.50;51.20;;;;;;5036847;28;20279;-68
2023/07/09 06:20:58;;;;;;;53.30;9.27;;;29.50;51.20;;;;;;5027680;28;20285;-69
2023/07/09 06:23:25;;;;;;;78.30;11.37;;;29.50;51.20;;;;;;5019367;28;20212;-68
2023/07/09 06:25:52;;;;;;;38.37;7.63;;;29.50;51.20;;;;;;5025846;28;20201;-71
2023/07/09 06:28:21;;;;;;;32.07;7.20;;;29.60;51.30;;;;;;5029471;28;20212;-73
2023/07/09 06:30:49;;;;;;;29.83;6.73;;;29.50;51.20;;;;;;5025012;28;20201;-65
2023/07/09 06:33:18;;;;;;;29.00;6.37;;;29.60;51.30;;;;;;5040543;28;20208;-65
2023/07/09 06:35:47;;;;;;;42.47;8.20;;;29.60;51.30;;;;;;5018668;28;20197;-65
2023/07/09 06:38:14;;;;;;;33.70;7.20;;;29.60;51.30;;;;;;5024095;28;20255;-65
2023/07/09 06:40:41;;;;;;;33.10;7.13;;;29.60;51.30;;;;;;5024557;28;20696;-65
2023/07/09 06:43:08;;;;;;;28.63;6.67;;;29.50;51.30;;;;;;5030606;28;20224;-65
2023/07/09 06:45:35;;;;;;;29.77;7.00;;;29.60;51.30;;;;;;5015181;28;20206;-65
2023/07/09 06:48:04;;;;;;;25.43;6.37;;;29.60;51.30;;;;;;5025095;28;20189;-66
2023/07/09 06:50:34;;;;;;;38.33;7.70;;;29.60;51.40;;;;;;5022855;28;20193;-66
2023/07/09 06:53:01;;;;;;;42.47;8.13;;;29.60;52.00;;;;;;5019813;28;20201;-65
2023/07/09 06:55:27;;;;;;;30.53;6.87;;;29.60;51.40;;;;;;5018732;28;20189;-65
2023/07/09 06:57:54;;;;;;;30.07;7.10;;;29.60;51.30;;;;;;5010128;28;20201;-66
2023/07/09 07:00:21;;;;;;;34.07;7.73;;;29.60;51.40;;;;;;5019866;28;20292;-67
2023/07/09 07:02:48;;;;;;;38.13;7.80;;;29.60;51.40;;;;;;5009389;28;20563;-66
2023/07/09 07:05:17;;;;;;;29.37;7.00;;;29.60;51.40;;;;;;5014512;28;20943;-66
2023/07/09 07:07:45;;;;;;;39.67;7.73;;;29.60;51.50;;;;;;5014051;28;20225;-67
2023/07/09 07:10:12;;;;;;;37.63;7.27;;;29.70;51.50;;;;;;5027908;28;20217;-66
2023/07/09 07:12:44;;;;;;;31.63;7.00;;;29.70;51.50;;;;;;5028642;28;20225;-66
2023/07/09 07:15:13;;;;;;;30.53;6.73;;;29.70;51.60;;;;;;5023770;28;20196;-66
2023/07/09 07:17:40;;;;;;;31.80;7.17;;;29.70;51.60;;;;;;5049919;28;20203;-70
2023/07/09 07:20:08;;;;;;;28.73;6.87;;;29.70;51.60;;;;;;5037313;28;20217;-67
2023/07/09 07:22:37;;;;;;;35.40;7.47;;;29.70;51.70;;;;;;5038959;28;20653;-67
2023/07/09 07:25:05;;;;;;;52.87;13.23;;;29.70;51.80;;;;;;5022822;28;20198;-66
2023/07/09 07:27:32;;;;;;;53.63;12.87;;;29.80;51.80;;;;;;5010644;28;20838;-66
2023/07/09 07:29:59;;;;;;;52.67;13.00;;;29.70;51.80;;;;;;5009794;28;20271;-65
2023/07/09 07:32:26;;;;;;;51.90;13.40;;;29.80;51.80;;;;;;5034314;28;20200;-67
2023/07/09 07:34:54;;;;;;;42.03;10.83;;;29.80;51.80;;;;;;5034340;28;20202;-65
2023/07/09 07:37:21;;;;;;;33.20;9.23;;;29.80;51.90;;;;;;5038269;28;20262;-67
2023/07/09 07:39:50;;;;;;;40.20;9.13;;;29.80;51.90;;;;;;5022619;28;20209;-67
2023/07/09 07:42:18;;;;;;;31.27;8.37;;;29.80;52.50;;;;;;5017097;28;20212;-66
2023/07/09 07:44:44;;;;;;;41.50;8.83;;;29.90;51.90;;;;;;5024413;28;20649;-66
2023/07/09 07:47:13;;;;;;;22.50;7.20;;;29.90;51.90;;;;;;5021719;28;20467;-67
2023/07/09 07:49:40;;;;;;;38.57;8.17;;;29.90;51.90;;;;;;5017357;28;20209;-67
2023/07/09 07:52:07;;;;;;;41.30;8.50;;;29.90;51.90;;;;;;5026543;28;20200;-66
2023/07/09 07:54:35;;;;;;;45.50;8.90;;;29.90;51.90;;;;;;5009700;28;20336;-66
2023/07/09 07:57:03;;;;;;;35.47;7.73;;;29.90;51.90;;;;;;5032712;28;20203;-66
2023/07/09 07:59:32;;;;;;;33.20;8.10;;;29.90;51.90;;;;;;5009089;28;20197;-66
2023/07/09 08:01:59;;;;;;;36.43;8.00;;;29.90;52.00;;;;;;5009388;28;20229;-67
2023/07/09 08:04:26;;;;;;;40.77;8.43;;;29.90;52.00;;;;;;5013571;28;20435;-68
2023/07/09 08:06:53;;;;;;;30.00;7.00;;;30.00;52.60;;;;;;5023639;28;20201;-66
2023/07/09 08:09:20;;;;;;;27.00;7.00;;;30.00;52.00;;;;;;5020694;28;20662;-69
2023/07/09 08:11:47;;;;;;;29.93;7.53;;;30.00;52.00;;;;;;5008889;28;20268;-64
2023/07/09 08:14:15;;;;;;;33.23;7.10;;;30.00;52.00;;;;;;5038972;28;20868;-65
2023/07/09 08:16:44;;;;;;;32.57;7.27;;;30.00;52.00;;;;;;5038384;28;20742;-65
2023/07/09 08:19:11;;;;;;;29.90;7.27;;;30.00;52.00;;;;;;5028775;28;20213;-68
2023/07/09 08:21:38;;;;;;;56.53;9.40;;;30.00;52.00;;;;;;5027201;28;20232;-67
2023/07/09 08:24:06;;;;;;;33.70;7.13;;;30.00;52.00;;;;;;5031386;28;20199;-66
2023/07/09 08:26:33;;;;;;;35.37;7.53;;;30.10;52.10;;;;;;5028973;28;20207;-65
2023/07/09 08:29:00;;;;;;;36.07;7.53;;;30.10;52.00;;;;;;5026559;28;20717;-65
2023/07/09 08:31:28;;;;;;;38.30;7.93;;;30.10;52.00;;;;;;5044389;28;20557;-68
2023/07/09 08:33:55;;;;;;;37.93;7.73;;;30.00;52.00;;;;;;5046003;28;20215;-66
2023/07/09 08:36:22;;;;;;;37.80;8.03;;;30.00;52.00;;;;;;5014007;28;20216;-65
2023/07/09 08:38:49;;;;;;;30.27;6.97;;;30.10;52.00;;;;;;5045706;28;20208;-66
2023/07/09 08:41:27;;;;;;;31.60;7.30;;;30.10;52.40;;;;;;5048299;28;20231;-70
2023/07/09 08:44:05;;;;;;;41.13;8.17;;;30.10;52.60;;;;;;5023660;28;20205;-68
2023/07/09 08:46:45;;;;;;;29.70;7.03;;;30.10;52.40;;;;;;5039555;28;20615;-70
2023/07/09 08:49:17;;;;;;;49.00;8.97;;;30.10;52.20;;;;;;5022802;28;20219;-67
2023/07/09 08:51:44;;;;;;;47.13;8.63;;;30.10;52.20;;;;;;5010618;28;20222;-68
2023/07/09 08:54:19;;;;;;;35.50;7.40;;;30.10;52.10;;;;;;5021679;28;20209;-68
2023/07/09 08:56:46;;;;;;;42.73;8.50;;;30.10;52.10;;;;;;5016191;28;20236;-66
2023/07/09 08:59:17;;;;;;;56.43;9.20;;;30.10;52.10;;;;;;5012020;28;20207;-63
2023/07/09 09:01:51;;;;;;;33.23;7.00;;;30.10;52.10;;;;;;5024695;28;20224;-63
2023/07/09 09:04:25;;;;;;;39.10;8.13;;;30.10;52.20;;;;;;5028920;28;20668;-63
2023/07/09 09:06:59;;;;;;;44.63;8.47;;;30.20;52.20;;;;;;5023573;28;20212;-63
2023/07/09 09:09:33;;;;;;;68.03;10.43;;;30.20;52.10;;;;;;5022795;28;20689;-64
2023/07/09 09:12:09;;;;;;;49.93;8.53;;;30.20;52.10;;;;;;5021797;28;20224;-64
2023/07/09 09:14:40;;;;;;;74.23;11.27;;;30.10;52.10;;;;;;5011220;28;20193;-68
2023/07/09 09:17:13;;;;;;;36.90;7.90;;;30.20;52.10;;;;;;5009103;28;20215;-65
2023/07/09 09:19:47;;;;;;;40.63;8.27;;;30.20;52.10;;;;;;5022311;28;20200;-68
2023/07/09 09:22:18;;;;;;;43.00;8.57;;;30.20;52.10;;;;;;5035402;28;20240;-68
2023/07/09 09:24:56;;;;;;;32.13;7.10;;;30.20;52.10;;;;;;5023932;28;20197;-69
2023/07/09 09:27:23;;;;;;;37.83;7.40;;;30.20;52.10;;;;;;5018727;28;20212;-71
2023/07/09 09:29:50;;;;;;;34.80;7.13;;;30.20;52.10;;;;;;5009787;28;20654;-70
2023/07/09 09:32:25;;;;;;;36.97;7.60;;;30.20;52.20;;;;;;5038459;28;20564;-71
2023/07/09 09:34:53;;;;;;;32.27;7.07;;;30.20;52.20;;;;;;5011099;28;20197;-66
2023/07/09 09:37:28;;;;;;;37.07;7.70;;;30.20;52.10;;;;;;5014709;28;20219;-66
2023/07/09 09:39:55;;;;;;;38.43;7.63;;;30.20;52.20;;;;;;5014496;28;20208;-67
2023/07/09 09:42:25;;;;;;;61.27;9.90;;;30.20;52.80;;;;;;5026514;28;20220;-66
2023/07/09 09:44:55;;;;;;;60.03;9.27;;;30.20;52.40;;;;;;5017262;28;20295;-68
2023/07/09 09:47:27;;;;;;;36.80;7.40;;;30.20;52.30;;;;;;5034812;28;20216;-67
2023/07/09 09:49:54;;;;;;;29.10;7.00;;;30.20;52.30;;;;;;5033325;28;20291;-69
2023/07/09 09:52:27;;;;;;;42.40;8.27;;;30.20;52.30;;;;;;5030179;28;20209;-67
2023/07/09 09:54:56;;;;;;;49.03;8.60;;;30.20;52.30;;;;;;5009637;28;20201;-72
2023/07/09 09:57:25;;;;;;;31.83;7.00;;;30.30;52.40;;;;;;5028200;28;20197;-66
2023/07/09 09:59:55;;;;;;;50.70;9.30;;;30.30;52.50;;;;;;5025928;28;20200;-67
2023/07/09 10:02:26;;;;;;;27.33;6.87;;;30.30;52.50;;;;;;5027729;28;20232;-72
2023/07/09 10:04:53;;;;;;;28.97;7.67;;;30.30;52.50;;;;;;5038388;28;20201;-72
2023/07/09 10:07:24;;;;;;;31.70;8.23;;;30.30;52.50;;;;;;5028930;28;20204;-65
2023/07/09 10:09:53;;;;;;;31.00;8.07;;;30.20;52.50;;;;;;5021017;28;20216;-65
2023/07/09 10:12:36;;;;;;;28.67;7.93;;;30.30;52.50;;;;;;5008179;28;20234;-68
2023/07/09 10:15:17;;;;;;;45.47;10.40;;;30.30;52.60;;;;;;5015735;28;20663;-67
2023/07/09 10:17:54;;;;;;;44.83;10.40;;;30.30;52.60;;;;;;5023348;28;20201;-66
2023/07/09 10:20:26;;;;;;;50.27;11.27;;;30.30;52.60;;;;;;5010752;28;20431;-67
2023/07/09 10:22:58;;;;;;;44.73;10.60;;;30.30;52.60;;;;;;5018539;28;20193;-67
2023/07/09 10:25:40;;;;;;;38.47;10.67;;;30.30;53.30;;;;;;5011319;28;20209;-78
2023/07/09 10:28:27;;;;;;;34.67;9.03;;;30.30;52.80;;;;;;5019613;28;20204;-65
2023/07/09 10:31:06;;;;;;;29.23;8.43;;;30.30;53.10;;;;;;5035872;28;20694;-67
2023/07/09 10:33:47;;;;;;;37.47;11.20;;;30.30;53.10;;;;;;5017304;28;20228;-67
2023/07/09 10:36:26;;;;;;;41.63;10.97;;;30.30;53.30;;;;;;5027337;28;20213;-67
2023/07/09 10:39:00;;;;;;;29.87;9.87;;;30.30;53.30;;;;;;5027371;28;20208;-70
2023/07/09 10:41:29;;;;;;;32.97;10.60;;;30.30;53.40;;;;;;5028151;28;20239;-67
2023/07/09 10:44:01;;;;;;;28.63;9.40;;;30.30;53.20;;;;;;5026359;28;20192;-66
2023/07/09 10:46:33;;;;;;;35.77;10.00;;;30.30;53.40;;;;;;5039569;28;20249;-66
2023/07/09 10:49:06;;;;;;;36.17;9.77;;;30.30;53.50;;;;;;5048315;28;20856;-66
2023/07/09 10:51:37;;;;;;;34.10;10.40;;;30.30;53.40;;;;;;5026042;28;20740;-65
2023/07/09 10:54:12;;;;;;;43.13;10.03;;;30.30;53.60;;;;;;5030054;28;20189;-68
2023/07/09 10:56:40;;;;;;;55.33;14.73;;;30.30;53.80;;;;;;5032065;28;20200;-65
2023/07/09 10:59:21;;;;;;;41.07;11.93;;;30.30;53.50;;;;;;5009584;28;20205;-72
2023/07/09 11:01:52;;;;;;;77.70;14.73;;;30.30;53.50;;;;;;5034177;28;20211;-66
2023/07/09 11:04:36;;;;;;;35.70;10.07;;;30.30;53.40;;;;;;5021190;28;20287;-71
2023/07/09 11:07:06;;;;;;;32.90;9.73;;;30.30;53.40;;;;;;5025096;28;20248;-63
2023/07/09 11:09:38;;;;;;;28.20;8.27;;;30.30;53.30;;;;;;5031173;28;20215;-67
2023/07/09 11:12:11;;;;;;;36.57;8.87;;;30.30;53.40;;;;;;5050218;28;20225;-67
2023/07/09 11:14:44;;;;;;;38.40;8.97;;;30.30;53.40;;;;;;5040287;28;20547;-65
2023/07/09 11:17:15;;;;;;;38.20;9.37;;;30.30;53.40;;;;;;5049529;28;20196;-66
2023/07/09 11:19:47;;;;;;;22.03;7.63;;;30.30;53.50;;;;;;5045438;28;20211;-66
2023/07/09 11:22:18;;;;;;;30.43;8.33;;;30.30;53.40;;;;;;5021233;28;20235;-66
2023/07/09 11:24:51;;;;;;;31.87;8.30;;;30.30;53.40;;;;;;5016772;28;20775;-66
2023/07/09 11:27:20;;;;;;;28.90;7.77;;;30.30;53.40;;;;;;5023538;28;20204;-68
2023/07/09 11:29:48;;;;;;;56.23;10.17;;;30.20;53.30;;;;;;5037243;28;20197;-68
2023/07/09 11:32:22;;;;;;;34.83;7.80;;;30.30;53.30;;;;;;5035634;28;20713;-69
2023/07/09 11:34:50;;;;;;;29.10;6.97;;;30.20;53.40;;;;;;5009232;28;20221;-71
2023/07/09 11:37:19;;;;;;;30.97;7.80;;;30.30;53.50;;;;;;5024987;28;20219;-77
2023/07/09 11:39:47;;;;;;;30.90;7.43;;;30.30;53.40;;;;;;5028483;28;20201;-85
2023/07/09 11:42:29;;;;;;;50.17;9.13;;;30.20;53.50;;;;;;5017811;28;20239;-74
2023/07/09 11:45:03;;;;;;;25.30;6.70;;;30.30;53.50;;;;;;5021745;28;20204;-80
2023/07/09 11:47:35;;;;;;;28.30;7.03;;;30.30;53.50;;;;;;5029657;28;20199;-76
2023/07/09 11:50:06;;;;;;;43.93;8.47;;;30.30;53.50;;;;;;5015600;28;20237;-76
2023/07/09 11:52:37;;;;;;;20.07;6.30;;;30.30;53.40;;;;;;5034281;28;20211;-79
2023/07/09 11:55:20;;;;;;;40.70;8.33;;;30.30;53.40;;;;;;5030961;28;20209;-77
2023/07/09 11:57:49;;;;;;;28.87;7.03;;;30.30;53.40;;;;;;5009487;28;20201;-72
2023/07/09 12:00:17;;;;;;;34.00;7.53;;;30.30;53.40;;;;;;5008507;28;20213;-79
2023/07/09 12:02:44;;;;;;;42.37;7.83;;;30.40;53.40;;;;;;5018954;28;20657;-77
2023/07/09 12:05:14;;;;;;;29.87;7.10;;;30.30;53.40;;;;;;5025590;28;20200;-76
2023/07/09 12:07:42;;;;;;;24.95;6.70;;;30.30;53.30;;;;;;5044311;28;20196;-77
2023/07/09 12:10:22;;;;;;;31.77;7.30;;;30.40;53.40;;;;;;5033667;28;20280;-79
2023/07/09 12:12:49;;;;;;;25.87;6.53;;;30.30;53.40;;;;;;5038965;28;20231;-79
2023/07/09 12:15:20;;;;;;;23.47;6.87;;;30.40;53.30;;;;;;5048779;28;20192;-73
2023/07/09 12:17:58;;;;;;;42.33;7.83;;;30.40;53.40;;;;;;5016857;28;20249;-67
2023/07/09 12:20:30;;;;;;;24.40;6.20;;;30.40;53.50;;;;;;5017368;28;20201;-68
2023/07/09 12:22:57;;;;;;;26.47;6.77;;;30.30;53.30;;;;;;5023980;28;20224;-67
2023/07/09 12:25:26;;;;;;;47.87;8.60;;;30.40;53.30;;;;;;5010015;28;20212;-76
2023/07/09 12:27:53;;;;;;;34.23;7.57;;;30.40;53.30;;;;;;5013481;28;20207;-76
2023/07/09 12:30:21;;;;;;;23.97;6.53;;;30.30;53.30;;;;;;5023114;28;20215;-67
2023/07/09 12:32:52;;;;;;;30.60;7.23;;;30.40;53.30;;;;;;5013963;28;20197;-70
2023/07/09 12:35:20;;;;;;;67.57;10.47;;;30.30;53.30;;;;;;5016881;28;20201;-78
2023/07/09 12:37:52;;;;;;;24.33;6.30;;;30.40;53.30;;;;;;5029798;28;20208;-67
2023/07/09 12:40:23;;;;;;;47.90;8.90;;;30.40;53.30;;;;;;5024324;28;20204;-72
2023/07/09 12:42:50;;;;;;;34.33;7.40;;;30.30;53.30;;;;;;5028630;28;20216;-76
2023/07/09 12:45:19;;;;;;;30.67;7.18;;;30.30;53.30;;;;;;5028301;28;20204;-67